createdAt,value
2018-12-04T00:00:37.560Z,23.61
2018-12-04T00:01:13.368Z,23.60
2018-12-04T00:01:49.091Z,23.56
2018-12-04T00:02:24.870Z,23.52
2018-12-04T00:03:00.773Z,23.55
2018-12-04T00:03:36.729Z,23.50
2018-12-04T00:04:12.629Z,23.47
2018-12-04T00:04:48.260Z,23.49
2018-12-04T00:05:24.326Z,23.53
2018-12-04T00:06:00.405Z,23.48
2018-12-04T00:06:36.132Z,23.48
2018-12-04T00:07:12.302Z,23.50
2018-12-04T00:07:47.935Z,23.49
2018-12-04T00:08:23.768Z,23.50
2018-12-04T00:08:59.200Z,23.49
2018-12-04T00:09:35.130Z,23.51
2018-12-04T00:10:10.930Z,23.48
2018-12-04T00:10:46.751Z,23.49
2018-12-04T00:11:22.540Z,23.54
2018-12-04T00:11:58.480Z,23.48
2018-12-04T00:12:36.210Z,23.51
2018-12-04T00:13:11.979Z,23.50
2018-12-04T00:13:47.642Z,23.48
2018-12-04T00:14:23.329Z,23.45
2018-12-04T00:14:59.124Z,23.41
2018-12-04T00:15:35.110Z,23.43
2018-12-04T00:16:11.055Z,23.41
2018-12-04T00:16:46.877Z,23.40
2018-12-04T00:17:23.190Z,23.40
2018-12-04T00:17:59.336Z,23.40
2018-12-04T00:18:35.533Z,23.44
2018-12-04T00:19:11.260Z,23.42
2018-12-04T00:19:47.209Z,23.41
2018-12-04T00:20:22.900Z,23.41
2018-12-04T00:20:58.861Z,23.40
2018-12-04T00:21:35.020Z,23.44
2018-12-04T00:22:11.073Z,23.47
2018-12-04T00:22:46.928Z,23.43
2018-12-04T00:23:22.697Z,23.44
2018-12-04T00:23:58.662Z,23.47
2018-12-04T00:24:34.277Z,23.46
2018-12-04T00:25:10.715Z,23.46
2018-12-04T00:25:46.493Z,23.49
2018-12-04T00:26:22.193Z,23.45
2018-12-04T00:26:57.972Z,23.43
2018-12-04T00:27:33.787Z,23.42
2018-12-04T00:28:09.582Z,23.40
2018-12-04T00:28:45.289Z,23.40
2018-12-04T00:29:21.137Z,23.38
2018-12-04T00:29:57.120Z,23.44
2018-12-04T00:30:32.711Z,23.41
2018-12-04T00:31:08.929Z,23.04
2018-12-04T00:31:44.678Z,23.41
2018-12-04T00:32:20.551Z,23.35
2018-12-04T00:32:56.707Z,23.37
2018-12-04T00:33:32.554Z,23.36
2018-12-04T00:34:08.448Z,23.31
2018-12-04T00:34:44.828Z,23.34
2018-12-04T00:35:20.672Z,23.36
2018-12-04T00:35:56.577Z,23.34
2018-12-04T00:36:32.338Z,23.32
2018-12-04T00:37:08.119Z,23.43
2018-12-04T00:37:44.050Z,23.40
2018-12-04T00:38:19.705Z,23.39
2018-12-04T00:38:55.327Z,23.39
2018-12-04T00:39:31.042Z,23.40
2018-12-04T00:40:08.288Z,23.39
2018-12-04T00:40:44.117Z,23.39
2018-12-04T00:41:20.181Z,23.40
2018-12-04T00:41:56.304Z,23.40
2018-12-04T00:42:32.457Z,23.44
2018-12-04T00:43:08.469Z,23.40
2018-12-04T00:43:44.348Z,23.40
2018-12-04T00:44:20.139Z,23.36
2018-12-04T00:44:56.148Z,23.31
2018-12-04T00:45:31.996Z,23.27
2018-12-04T00:46:07.690Z,23.29
2018-12-04T00:46:43.505Z,23.29
2018-12-04T00:47:19.250Z,23.32
2018-12-04T00:47:54.889Z,23.38
2018-12-04T00:48:30.985Z,23.35
2018-12-04T00:49:06.635Z,23.38
2018-12-04T00:49:42.375Z,23.40
2018-12-04T00:50:18.697Z,23.39
2018-12-04T00:50:54.842Z,23.34
2018-12-04T00:51:30.880Z,23.35
2018-12-04T00:52:06.759Z,23.32
2018-12-04T00:52:42.427Z,23.29
2018-12-04T00:53:18.291Z,23.31
2018-12-04T00:53:53.920Z,23.34
2018-12-04T00:54:29.998Z,23.34
2018-12-04T00:55:06.304Z,23.28
2018-12-04T00:55:42.414Z,23.29
2018-12-04T00:56:18.249Z,23.29
2018-12-04T00:56:54.117Z,23.32
2018-12-04T00:57:30.149Z,23.41
2018-12-04T00:58:06.170Z,23.37
2018-12-04T00:58:42.022Z,23.31
2018-12-04T00:59:19.005Z,23.30
2018-12-04T00:59:54.674Z,23.32
2018-12-04T01:00:30.547Z,23.30
2018-12-04T01:01:06.518Z,23.36
2018-12-04T01:01:42.285Z,23.29
2018-12-04T01:02:18.380Z,23.29
2018-12-04T01:02:54.108Z,23.27
2018-12-04T01:03:30.094Z,23.24
2018-12-04T01:04:05.954Z,23.22
2018-12-04T01:04:41.856Z,23.18
2018-12-04T01:05:17.705Z,23.22
2018-12-04T01:05:53.453Z,23.23
2018-12-04T01:06:29.089Z,23.20
2018-12-04T01:07:04.950Z,23.20
2018-12-04T01:07:40.712Z,23.18
2018-12-04T01:08:16.522Z,23.29
2018-12-04T01:08:52.253Z,23.29
2018-12-04T01:09:28.365Z,23.24
2018-12-04T01:10:04.068Z,23.23
2018-12-04T01:10:39.836Z,23.24
2018-12-04T01:11:15.677Z,23.24
2018-12-04T01:11:51.606Z,23.28
2018-12-04T01:12:27.518Z,23.36
2018-12-04T01:13:03.438Z,23.37
2018-12-04T01:13:39.311Z,23.39
2018-12-04T01:14:14.981Z,23.34
2018-12-04T01:14:50.752Z,23.30
2018-12-04T01:15:26.408Z,23.31
2018-12-04T01:16:02.517Z,23.29
2018-12-04T01:16:38.445Z,23.37
2018-12-04T01:17:14.198Z,23.34
2018-12-04T01:17:50.137Z,23.37
2018-12-04T01:18:25.918Z,23.36
2018-12-04T01:19:01.586Z,23.32
2018-12-04T01:19:37.267Z,23.33
2018-12-04T01:20:13.149Z,23.27
2018-12-04T01:20:48.899Z,23.33
2018-12-04T01:21:24.709Z,23.38
2018-12-04T01:22:01.174Z,23.37
2018-12-04T01:22:37.258Z,23.25
2018-12-04T01:23:13.068Z,23.28
2018-12-04T01:23:48.646Z,23.26
2018-12-04T01:24:24.647Z,23.25
2018-12-04T01:25:00.428Z,23.25
2018-12-04T01:25:36.208Z,23.23
2018-12-04T01:26:11.721Z,23.27
2018-12-04T01:26:47.476Z,23.24
2018-12-04T01:27:23.687Z,23.22
2018-12-04T01:27:59.498Z,23.21
2018-12-04T01:28:35.117Z,23.20
2018-12-04T01:29:10.897Z,23.23
2018-12-04T01:29:47.236Z,23.24
2018-12-04T01:30:23.145Z,23.27
2018-12-04T01:30:58.798Z,23.31
2018-12-04T01:31:34.569Z,23.30
2018-12-04T01:32:10.508Z,23.26
2018-12-04T01:32:46.315Z,23.29
2018-12-04T01:33:22.351Z,23.27
2018-12-04T01:33:58.216Z,23.33
2018-12-04T01:34:34.102Z,23.30
2018-12-04T01:35:10.086Z,23.31
2018-12-04T01:35:45.825Z,23.33
2018-12-04T01:36:21.483Z,23.35
2018-12-04T01:36:57.208Z,23.23
2018-12-04T01:37:33.302Z,23.30
2018-12-04T01:38:09.981Z,23.36
2018-12-04T01:38:45.851Z,23.40
2018-12-04T01:39:21.740Z,23.35
2018-12-04T01:39:57.628Z,23.35
2018-12-04T01:40:33.565Z,23.34
2018-12-04T01:41:09.141Z,23.33
2018-12-04T01:41:45.293Z,23.31
2018-12-04T01:42:21.031Z,23.38
2018-12-04T01:42:56.939Z,23.36
2018-12-04T01:43:33.001Z,23.39
2018-12-04T01:44:09.012Z,23.40
2018-12-04T01:44:44.910Z,23.38
2018-12-04T01:45:20.555Z,23.35
2018-12-04T01:45:56.432Z,23.38
2018-12-04T01:46:32.530Z,23.37
2018-12-04T01:47:08.219Z,23.40
2018-12-04T01:47:43.740Z,23.38
2018-12-04T01:48:26.101Z,23.36
2018-12-04T01:49:01.836Z,23.34
2018-12-04T01:49:37.786Z,23.32
2018-12-04T01:50:13.824Z,23.37
2018-12-04T01:50:49.872Z,23.34
2018-12-04T01:51:25.945Z,23.36
2018-12-04T01:52:01.654Z,23.29
2018-12-04T01:52:37.226Z,23.27
2018-12-04T01:53:13.075Z,23.30
2018-12-04T01:53:49.011Z,23.26
2018-12-04T01:54:24.698Z,23.25
2018-12-04T01:55:00.581Z,23.27
2018-12-04T01:55:36.415Z,23.31
2018-12-04T01:56:12.362Z,23.25
2018-12-04T01:56:48.212Z,23.33
2018-12-04T01:57:24.125Z,23.27
2018-12-04T01:57:59.876Z,23.22
2018-12-04T01:58:35.765Z,23.23
2018-12-04T01:59:11.393Z,23.24
2018-12-04T01:59:47.032Z,23.25
2018-12-04T02:00:23.021Z,23.22
2018-12-04T02:00:59.634Z,23.25
2018-12-04T02:01:35.489Z,23.21
2018-12-04T02:02:11.485Z,23.18
2018-12-04T02:02:47.431Z,23.16
2018-12-04T02:03:23.081Z,23.14
2018-12-04T02:04:00.821Z,23.19
2018-12-04T02:04:37.155Z,23.19
2018-12-04T02:05:13.096Z,23.16
2018-12-04T02:05:49.063Z,23.20
2018-12-04T02:06:25.210Z,23.17
2018-12-04T02:07:01.534Z,23.22
2018-12-04T02:07:37.295Z,23.22
2018-12-04T02:08:13.193Z,23.25
2018-12-04T02:08:48.918Z,23.25
2018-12-04T02:09:25.001Z,23.23
2018-12-04T02:10:00.601Z,23.19
2018-12-04T02:10:36.362Z,23.12
2018-12-04T02:11:12.173Z,23.14
2018-12-04T02:11:48.023Z,23.15
2018-12-04T02:12:23.805Z,23.16
2018-12-04T02:12:59.699Z,23.23
2018-12-04T02:13:35.565Z,23.20
2018-12-04T02:14:11.297Z,23.18
2018-12-04T02:14:47.112Z,23.17
2018-12-04T02:15:22.980Z,23.16
2018-12-04T02:15:59.245Z,23.20
2018-12-04T02:16:34.777Z,23.22
2018-12-04T02:17:10.588Z,23.21
2018-12-04T02:17:46.337Z,23.26
2018-12-04T02:18:22.489Z,23.29
2018-12-04T02:18:58.277Z,23.25
2018-12-04T02:19:34.292Z,23.23
2018-12-04T02:20:10.314Z,23.26
2018-12-04T02:20:45.862Z,23.21
2018-12-04T02:21:21.720Z,23.26
2018-12-04T02:21:57.626Z,23.21
2018-12-04T02:22:33.340Z,23.21
2018-12-04T02:23:09.261Z,23.18
2018-12-04T02:23:45.283Z,23.25
2018-12-04T02:24:20.982Z,23.27
2018-12-04T02:24:56.666Z,23.28
2018-12-04T02:25:32.596Z,23.34
2018-12-04T02:26:08.457Z,23.28
2018-12-04T02:26:44.336Z,23.26
2018-12-04T02:27:20.089Z,23.25
2018-12-04T02:27:55.880Z,23.27
2018-12-04T02:28:36.660Z,23.25
2018-12-04T02:29:12.452Z,23.20
2018-12-04T02:29:48.652Z,23.28
2018-12-04T02:30:24.315Z,23.27
2018-12-04T02:31:00.227Z,23.31
2018-12-04T02:31:36.498Z,23.32
2018-12-04T02:32:12.609Z,23.35
2018-12-04T02:32:48.576Z,23.26
2018-12-04T02:33:24.723Z,23.32
2018-12-04T02:34:01.107Z,23.34
2018-12-04T02:34:37.077Z,23.36
2018-12-04T02:35:13.150Z,23.30
2018-12-04T02:35:49.224Z,23.30
2018-12-04T02:36:25.098Z,23.28
2018-12-04T02:37:01.046Z,23.30
2018-12-04T02:37:37.104Z,23.26
2018-12-04T02:38:13.109Z,23.27
2018-12-04T02:38:49.182Z,23.40
2018-12-04T02:39:25.298Z,23.40
2018-12-04T02:40:01.184Z,23.38
2018-12-04T02:40:37.282Z,23.43
2018-12-04T02:41:13.112Z,23.40
2018-12-04T02:41:48.781Z,23.38
2018-12-04T02:42:27.757Z,23.40
2018-12-04T02:43:03.399Z,23.37
2018-12-04T02:43:39.345Z,23.35
2018-12-04T02:44:15.156Z,23.33
2018-12-04T02:44:51.404Z,23.37
2018-12-04T02:45:27.321Z,23.43
2018-12-04T02:46:03.130Z,23.45
2018-12-04T02:46:39.111Z,23.47
2018-12-04T02:47:14.781Z,23.38
2018-12-04T02:47:50.751Z,23.31
2018-12-04T02:48:27.064Z,23.24
2018-12-04T02:49:03.735Z,23.27
2018-12-04T02:49:39.754Z,23.36
2018-12-04T02:50:22.609Z,23.28
2018-12-04T02:50:58.388Z,23.25
2018-12-04T02:51:34.307Z,23.25
2018-12-04T02:52:10.212Z,23.30
2018-12-04T02:52:45.861Z,23.36
2018-12-04T02:53:21.688Z,23.28
2018-12-04T02:53:57.355Z,23.25
2018-12-04T02:54:32.986Z,23.28
2018-12-04T02:55:08.691Z,23.27
2018-12-04T02:55:44.303Z,23.33
2018-12-04T02:56:20.133Z,23.37
2018-12-04T02:56:55.781Z,23.42
2018-12-04T02:57:31.918Z,23.38
2018-12-04T02:58:07.791Z,23.40
2018-12-04T02:58:43.526Z,23.32
2018-12-04T02:59:19.212Z,23.31
2018-12-04T02:59:55.217Z,23.33
2018-12-04T03:00:31.512Z,23.38
2018-12-04T03:01:07.558Z,23.36
2018-12-04T03:01:43.207Z,23.31
2018-12-04T03:02:19.190Z,23.31
2018-12-04T03:02:55.458Z,23.41
2018-12-04T03:03:31.985Z,23.40
2018-12-04T03:04:08.112Z,23.45
2018-12-04T03:04:43.789Z,23.44
2018-12-04T03:05:19.620Z,23.45
2018-12-04T03:05:55.388Z,23.29
2018-12-04T03:06:31.353Z,23.21
2018-12-04T03:07:07.278Z,23.18
2018-12-04T03:07:43.265Z,23.16
2018-12-04T03:08:18.854Z,23.24
2018-12-04T03:08:54.786Z,23.24
2018-12-04T03:09:31.211Z,23.20
2018-12-04T03:10:08.345Z,23.27
2018-12-04T03:10:44.366Z,23.25
2018-12-04T03:11:20.251Z,23.17
2018-12-04T03:11:55.753Z,23.11
2018-12-04T03:12:31.534Z,23.13
2018-12-04T03:13:06.304Z,23.06
2018-12-04T03:13:42.111Z,23.11
2018-12-04T03:14:17.802Z,23.14
2018-12-04T03:14:53.360Z,23.20
2018-12-04T03:15:29.250Z,23.18
2018-12-04T03:16:05.118Z,23.18
2018-12-04T03:16:41.157Z,23.10
2018-12-04T03:17:16.921Z,23.07
2018-12-04T03:17:52.624Z,23.16
2018-12-04T03:18:28.359Z,23.26
2018-12-04T03:19:04.129Z,23.19
2018-12-04T03:19:39.910Z,23.14
2018-12-04T03:20:15.828Z,23.07
2018-12-04T03:20:51.485Z,23.03
2018-12-04T03:21:27.497Z,23.19
2018-12-04T03:22:03.631Z,23.25
2018-12-04T03:22:39.870Z,23.18
2018-12-04T03:23:15.630Z,23.13
2018-12-04T03:23:51.461Z,23.19
2018-12-04T03:24:27.246Z,23.11
2018-12-04T03:25:02.943Z,23.19
2018-12-04T03:25:38.459Z,23.24
2018-12-04T03:26:14.336Z,23.21
2018-12-04T03:26:50.126Z,23.24
2018-12-04T03:27:26.163Z,23.31
2018-12-04T03:28:02.097Z,23.29
2018-12-04T03:28:37.862Z,23.31
2018-12-04T03:29:13.690Z,23.35
2018-12-04T03:29:49.560Z,23.32
2018-12-04T03:30:25.615Z,23.20
2018-12-04T03:31:01.399Z,23.10
2018-12-04T03:31:37.279Z,23.11
2018-12-04T03:32:12.968Z,23.08
2018-12-04T03:32:48.719Z,23.08
2018-12-04T03:33:34.785Z,23.11
2018-12-04T03:34:10.498Z,23.12
2018-12-04T03:34:46.282Z,23.15
2018-12-04T03:35:22.162Z,23.06
2018-12-04T03:35:58.401Z,22.98
2018-12-04T03:36:34.093Z,23.04
2018-12-04T03:37:09.775Z,23.04
2018-12-04T03:37:45.448Z,23.05
2018-12-04T03:38:21.366Z,23.00
2018-12-04T03:38:56.963Z,23.03
2018-12-04T03:39:33.154Z,23.03
2018-12-04T03:40:11.325Z,23.01
2018-12-04T03:40:47.295Z,23.06
2018-12-04T03:41:23.381Z,23.02
2018-12-04T03:41:59.488Z,23.07
2018-12-04T03:42:35.400Z,23.12
2018-12-04T03:43:11.087Z,23.00
2018-12-04T03:43:46.679Z,23.01
2018-12-04T03:44:22.284Z,23.10
2018-12-04T03:44:58.155Z,23.10
2018-12-04T03:45:34.130Z,23.18
2018-12-04T03:46:10.017Z,23.10
2018-12-04T03:46:48.998Z,23.21
2018-12-04T03:47:25.499Z,23.08
2018-12-04T03:48:01.629Z,23.02
2018-12-04T03:48:37.330Z,22.97
2018-12-04T03:49:13.071Z,23.08
2018-12-04T03:49:48.798Z,23.00
2018-12-04T03:50:24.621Z,23.00
2018-12-04T03:51:00.496Z,23.08
2018-12-04T03:51:36.363Z,23.05
2018-12-04T03:52:12.129Z,23.02
2018-12-04T03:52:48.140Z,22.97
2018-12-04T03:53:23.866Z,23.04
2018-12-04T03:53:59.567Z,23.03
2018-12-04T03:54:35.249Z,22.98
2018-12-04T03:55:11.159Z,22.95
2018-12-04T03:55:47.059Z,22.89
2018-12-04T03:56:22.792Z,22.95
2018-12-04T03:56:58.432Z,22.99
2018-12-04T03:57:34.213Z,22.99
2018-12-04T03:58:09.949Z,23.01
2018-12-04T03:58:45.764Z,23.05
2018-12-04T03:59:21.704Z,23.09
2018-12-04T03:59:57.656Z,23.05
2018-12-04T04:00:33.628Z,23.16
2018-12-04T04:01:09.304Z,23.16
2018-12-04T04:01:44.909Z,23.20
2018-12-04T04:02:20.761Z,23.11
2018-12-04T04:02:56.639Z,23.04
2018-12-04T04:03:32.446Z,23.08
2018-12-04T04:04:08.363Z,23.14
2018-12-04T04:04:44.102Z,23.15
2018-12-04T04:05:21.280Z,23.23
2018-12-04T04:05:57.022Z,23.28
2018-12-04T04:06:32.827Z,23.27
2018-12-04T04:07:08.465Z,23.30
2018-12-04T04:07:44.661Z,23.24
2018-12-04T04:08:20.195Z,23.25
2018-12-04T04:08:56.112Z,23.31
2018-12-04T04:09:31.907Z,23.36
2018-12-04T04:10:08.360Z,23.36
2018-12-04T04:10:44.275Z,23.28
2018-12-04T04:11:19.945Z,23.32
2018-12-04T04:11:55.677Z,23.37
2018-12-04T04:12:31.604Z,23.34
2018-12-04T04:13:07.373Z,23.38
2018-12-04T04:13:43.410Z,23.35
2018-12-04T04:14:19.299Z,23.35
2018-12-04T04:14:55.147Z,23.36
2018-12-04T04:15:31.108Z,23.42
2018-12-04T04:16:07.039Z,23.43
2018-12-04T04:16:42.648Z,23.34
2018-12-04T04:17:18.430Z,23.29
2018-12-04T04:17:54.740Z,23.39
2018-12-04T04:18:30.939Z,23.42
2018-12-04T04:19:06.953Z,23.43
2018-12-04T04:19:42.842Z,23.44
2018-12-04T04:20:18.805Z,23.30
2018-12-04T04:20:54.648Z,23.24
2018-12-04T04:21:30.427Z,23.34
2018-12-04T04:22:06.399Z,23.38
2018-12-04T04:22:42.282Z,23.36
2018-12-04T04:23:18.202Z,23.33
2018-12-04T04:23:53.925Z,23.28
2018-12-04T04:24:29.713Z,23.30
2018-12-04T04:25:05.863Z,23.23
2018-12-04T04:25:41.794Z,23.08
2018-12-04T04:26:17.503Z,23.00
2018-12-04T04:26:53.399Z,23.09
2018-12-04T04:27:29.045Z,23.18
2018-12-04T04:28:05.003Z,23.18
2018-12-04T04:28:41.029Z,23.22
2018-12-04T04:29:16.808Z,23.23
2018-12-04T04:29:52.512Z,23.25
2018-12-04T04:30:28.454Z,23.27
2018-12-04T04:31:04.353Z,23.25
2018-12-04T04:31:40.140Z,23.25
2018-12-04T04:32:15.969Z,23.27
2018-12-04T04:32:51.672Z,23.31
2018-12-04T04:33:27.637Z,23.34
2018-12-04T04:34:03.367Z,23.35
2018-12-04T04:34:39.054Z,23.41
2018-12-04T04:35:14.898Z,23.39
2018-12-04T04:35:50.802Z,23.41
2018-12-04T04:36:26.499Z,23.40
2018-12-04T04:37:02.194Z,23.34
2018-12-04T04:37:38.164Z,23.30
2018-12-04T04:38:14.019Z,23.36
2018-12-04T04:38:49.926Z,23.39
2018-12-04T04:39:25.823Z,23.36
2018-12-04T04:40:01.618Z,23.29
2018-12-04T04:40:37.452Z,23.24
2018-12-04T04:41:13.464Z,23.31
2018-12-04T04:41:49.365Z,23.35
2018-12-04T04:42:25.121Z,23.35
2018-12-04T04:43:00.962Z,23.38
2018-12-04T04:43:36.761Z,23.33
2018-12-04T04:44:12.557Z,23.37
2018-12-04T04:44:48.279Z,23.36
2018-12-04T04:45:24.175Z,23.37
2018-12-04T04:45:59.874Z,23.37
2018-12-04T04:46:35.648Z,23.31
2018-12-04T04:47:11.505Z,23.29
2018-12-04T04:47:47.248Z,23.28
2018-12-04T04:48:22.815Z,23.31
2018-12-04T04:48:58.739Z,23.34
2018-12-04T04:49:34.611Z,23.16
2018-12-04T04:50:10.412Z,23.27
2018-12-04T04:50:45.947Z,23.33
2018-12-04T04:51:21.856Z,23.31
2018-12-04T04:51:57.429Z,23.32
2018-12-04T04:52:33.191Z,23.32
2018-12-04T04:53:08.872Z,23.28
2018-12-04T04:53:44.682Z,23.30
2018-12-04T04:54:20.406Z,23.26
2018-12-04T04:54:56.161Z,23.18
2018-12-04T04:55:31.820Z,23.11
2018-12-04T04:56:07.628Z,23.14
2018-12-04T04:56:43.479Z,23.19
2018-12-04T04:57:19.434Z,23.18
2018-12-04T04:57:55.135Z,23.09
2018-12-04T04:58:30.755Z,23.18
2018-12-04T04:59:06.498Z,23.22
2018-12-04T04:59:42.414Z,23.21
2018-12-04T05:00:18.266Z,23.19
2018-12-04T05:00:54.079Z,23.18
2018-12-04T05:01:30.204Z,23.11
2018-12-04T05:02:05.704Z,23.14
2018-12-04T05:02:41.455Z,23.18
2018-12-04T05:03:17.263Z,23.12
2018-12-04T05:03:53.279Z,23.16
2018-12-04T05:04:29.266Z,23.23
2018-12-04T05:05:05.422Z,23.02
2018-12-04T05:05:42.582Z,22.99
2018-12-04T05:06:18.227Z,23.12
2018-12-04T05:06:54.264Z,23.03
2018-12-04T05:07:29.936Z,23.01
2018-12-04T05:08:05.808Z,23.05
2018-12-04T05:08:41.413Z,23.00
2018-12-04T05:09:17.248Z,23.02
2018-12-04T05:09:53.076Z,22.99
2018-12-04T05:10:28.892Z,23.00
2018-12-04T05:11:04.593Z,23.04
2018-12-04T05:11:40.287Z,23.02
2018-12-04T05:12:16.228Z,23.09
2018-12-04T05:12:52.011Z,23.06
2018-12-04T05:13:28.054Z,23.14
2018-12-04T05:14:03.806Z,23.00
2018-12-04T05:14:39.469Z,22.97
2018-12-04T05:15:15.139Z,23.00
2018-12-04T05:15:50.733Z,23.02
2018-12-04T05:16:26.902Z,23.10
2018-12-04T05:17:02.613Z,22.96
2018-12-04T05:17:38.480Z,22.87
2018-12-04T05:18:14.441Z,22.85
2018-12-04T05:18:50.189Z,22.71
2018-12-04T05:19:25.992Z,22.80
2018-12-04T05:20:01.793Z,22.91
2018-12-04T05:20:37.775Z,22.81
2018-12-04T05:21:13.294Z,22.77
2018-12-04T05:21:49.106Z,22.86
2018-12-04T05:22:24.921Z,22.86
2018-12-04T05:23:00.753Z,22.85
2018-12-04T05:23:36.586Z,22.80
2018-12-04T05:24:12.186Z,22.87
2018-12-04T05:24:47.927Z,22.91
2018-12-04T05:25:23.443Z,22.85
2018-12-04T05:25:59.709Z,22.91
2018-12-04T05:26:35.307Z,22.99
2018-12-04T05:27:10.929Z,22.86
2018-12-04T05:27:46.852Z,22.78
2018-12-04T05:28:23.205Z,22.76
2018-12-04T05:28:59.403Z,22.80
2018-12-04T05:29:35.355Z,22.77
2018-12-04T05:30:11.302Z,22.77
2018-12-04T05:30:47.150Z,22.78
2018-12-04T05:31:22.909Z,22.86
2018-12-04T05:31:58.719Z,22.82
2018-12-04T05:32:34.453Z,22.89
2018-12-04T05:33:10.266Z,22.81
2018-12-04T05:33:45.920Z,22.85
2018-12-04T05:34:21.614Z,22.94
2018-12-04T05:34:57.625Z,23.05
2018-12-04T05:35:33.508Z,23.03
2018-12-04T05:36:09.410Z,23.07
2018-12-04T05:36:45.005Z,23.01
2018-12-04T05:37:20.722Z,23.00
2018-12-04T05:37:56.663Z,22.92
2018-12-04T05:38:32.643Z,22.92
2018-12-04T05:39:09.392Z,23.00
2018-12-04T05:39:45.133Z,22.92
2018-12-04T05:40:20.932Z,22.81
2018-12-04T05:40:56.826Z,22.76
2018-12-04T05:41:32.537Z,22.68
2018-12-04T05:42:08.364Z,22.79
2018-12-04T05:42:44.262Z,22.78
2018-12-04T05:43:19.913Z,22.83
2018-12-04T05:43:55.507Z,22.73
2018-12-04T05:44:31.408Z,22.73
2018-12-04T05:45:08.542Z,22.72
2018-12-04T05:45:44.148Z,22.68
2018-12-04T05:46:20.055Z,22.72
2018-12-04T05:46:55.820Z,22.75
2018-12-04T05:47:31.623Z,22.69
2018-12-04T05:48:07.331Z,22.73
2018-12-04T05:48:43.368Z,22.80
2018-12-04T05:49:19.125Z,22.84
2018-12-04T05:49:54.964Z,22.80
2018-12-04T05:50:30.798Z,22.79
2018-12-04T05:51:06.761Z,22.84
2018-12-04T05:51:42.533Z,22.92
2018-12-04T05:52:18.516Z,22.94
2018-12-04T05:53:04.145Z,22.93
2018-12-04T05:53:40.097Z,22.84
2018-12-04T05:54:16.928Z,22.87
2018-12-04T05:54:52.612Z,22.87
2018-12-04T05:55:28.143Z,22.89
2018-12-04T05:56:04.032Z,22.86
2018-12-04T05:56:39.929Z,22.86
2018-12-04T05:57:15.807Z,22.86
2018-12-04T05:57:51.570Z,22.80
2018-12-04T05:58:27.404Z,22.79
2018-12-04T05:59:03.346Z,22.81
2018-12-04T05:59:39.254Z,22.81
2018-12-04T06:00:15.221Z,22.84
2018-12-04T06:00:50.893Z,22.82
2018-12-04T06:01:26.757Z,22.81
2018-12-04T06:02:02.594Z,22.76
2018-12-04T06:02:38.526Z,22.72
2018-12-04T06:03:14.228Z,22.70
2018-12-04T06:03:50.001Z,22.71
2018-12-04T06:04:25.578Z,22.75
2018-12-04T06:05:01.248Z,22.78
2018-12-04T06:05:37.048Z,22.78
2018-12-04T06:06:12.831Z,22.73
2018-12-04T06:06:48.617Z,22.82
2018-12-04T06:07:24.530Z,22.77
2018-12-04T06:08:00.334Z,22.76
2018-12-04T06:08:35.942Z,22.61
2018-12-04T06:09:11.783Z,22.68
2018-12-04T06:10:02.452Z,22.67
2018-12-04T06:10:38.165Z,22.70
2018-12-04T06:11:13.807Z,22.69
2018-12-04T06:11:49.547Z,22.63
2018-12-04T06:12:25.186Z,22.63
2018-12-04T06:13:01.144Z,22.53
2018-12-04T06:13:36.692Z,22.50
2018-12-04T06:14:12.216Z,22.54
2018-12-04T06:14:48.254Z,22.43
2018-12-04T06:15:23.726Z,22.37
2018-12-04T06:15:59.447Z,22.43
2018-12-04T06:16:35.112Z,22.54
2018-12-04T06:17:10.749Z,22.54
2018-12-04T06:17:46.680Z,22.47
2018-12-04T06:18:22.721Z,22.43
2018-12-04T06:18:58.428Z,22.46
2018-12-04T06:19:34.245Z,22.53
2018-12-04T06:20:09.977Z,22.60
2018-12-04T06:20:45.571Z,22.57
2018-12-04T06:21:21.143Z,22.58
2018-12-04T06:21:56.891Z,22.62
2018-12-04T06:22:32.732Z,22.64
2018-12-04T06:23:08.247Z,22.57
2018-12-04T06:23:44.026Z,22.63
2018-12-04T06:24:19.509Z,22.57
2018-12-04T06:24:55.549Z,22.59
2018-12-04T06:25:31.516Z,22.55
2018-12-04T06:26:07.142Z,22.50
2018-12-04T06:26:42.879Z,22.55
2018-12-04T06:27:19.026Z,22.55
2018-12-04T06:27:54.731Z,22.60
2018-12-04T06:28:30.395Z,22.51
2018-12-04T06:29:06.194Z,22.53
2018-12-04T06:29:41.969Z,22.59
2018-12-04T06:30:17.686Z,22.44
2018-12-04T06:30:53.468Z,22.41
2018-12-04T06:31:29.008Z,22.32
2018-12-04T06:32:05.050Z,22.34
2018-12-04T06:32:41.060Z,22.41
2018-12-04T06:33:16.774Z,22.36
2018-12-04T06:33:52.493Z,22.35
2018-12-04T06:34:28.233Z,22.39
2018-12-04T06:35:03.991Z,22.47
2018-12-04T06:35:39.735Z,22.52
2018-12-04T06:36:15.388Z,22.55
2018-12-04T06:36:51.056Z,22.51
2018-12-04T06:37:26.830Z,22.55
2018-12-04T06:38:02.531Z,22.55
2018-12-04T06:38:38.487Z,22.39
2018-12-04T06:39:14.202Z,22.29
2018-12-04T06:39:49.947Z,22.39
2018-12-04T06:40:25.803Z,22.29
2018-12-04T06:41:01.551Z,22.14
2018-12-04T06:41:37.783Z,22.13
2018-12-04T06:42:13.667Z,22.16
2018-12-04T06:42:49.548Z,22.27
2018-12-04T06:43:25.403Z,22.28
2018-12-04T06:44:01.114Z,22.30
2018-12-04T06:44:36.921Z,22.31
2018-12-04T06:45:12.689Z,22.32
2018-12-04T06:45:48.438Z,22.41
2018-12-04T06:46:24.672Z,22.45
2018-12-04T06:47:00.053Z,22.40
2018-12-04T06:47:36.055Z,22.47
2018-12-04T06:48:11.683Z,22.46
2018-12-04T06:48:47.600Z,22.41
2018-12-04T06:49:23.206Z,22.32
2018-12-04T06:49:58.941Z,22.42
2018-12-04T06:50:34.819Z,22.41
2018-12-04T06:51:11.070Z,22.45
2018-12-04T06:51:46.973Z,22.37
2018-12-04T06:52:22.930Z,22.35
2018-12-04T06:52:58.700Z,22.30
2018-12-04T06:53:34.352Z,22.40
2018-12-04T06:54:10.161Z,22.29
2018-12-04T06:54:45.899Z,22.25
2018-12-04T06:55:21.555Z,22.39
2018-12-04T06:55:57.658Z,22.43
2018-12-04T06:56:33.518Z,22.39
2018-12-04T06:57:09.092Z,22.36
2018-12-04T06:57:44.798Z,22.41
2018-12-04T06:58:20.465Z,22.40
2018-12-04T06:58:56.402Z,22.41
2018-12-04T06:59:32.509Z,22.44
2018-12-04T07:00:09.256Z,22.45
2018-12-04T07:00:45.720Z,22.44
2018-12-04T07:01:21.644Z,22.37
2018-12-04T07:01:57.348Z,22.44
2018-12-04T07:02:33.342Z,22.41
2018-12-04T07:03:09.190Z,22.32
2018-12-04T07:03:44.816Z,22.34
2018-12-04T07:04:20.444Z,22.31
2018-12-04T07:04:56.108Z,22.24
2018-12-04T07:05:32.059Z,22.29
2018-12-04T07:06:07.944Z,22.37
2018-12-04T07:06:44.007Z,22.35
2018-12-04T07:07:19.874Z,22.39
2018-12-04T07:07:55.805Z,22.26
2018-12-04T07:08:31.429Z,22.29
2018-12-04T07:09:10.330Z,22.32
2018-12-04T07:09:46.035Z,22.24
2018-12-04T07:10:21.636Z,22.21
2018-12-04T07:10:57.352Z,22.16
2018-12-04T07:11:32.947Z,22.13
2018-12-04T07:12:08.687Z,22.10
2018-12-04T07:12:44.772Z,22.04
2018-12-04T07:13:20.532Z,21.98
2018-12-04T07:13:56.412Z,22.06
2018-12-04T07:14:32.377Z,22.01
2018-12-04T07:15:08.958Z,22.03
2018-12-04T07:15:44.909Z,22.03
2018-12-04T07:16:20.640Z,22.01
2018-12-04T07:16:56.502Z,21.94
2018-12-04T07:17:32.462Z,21.94
2018-12-04T07:18:08.311Z,21.93
2018-12-04T07:18:43.897Z,22.04
2018-12-04T07:19:19.467Z,22.09
2018-12-04T07:19:55.328Z,22.15
2018-12-04T07:20:31.122Z,22.18
2018-12-04T07:21:06.889Z,22.14
2018-12-04T07:21:42.719Z,22.21
2018-12-04T07:22:18.558Z,22.08
2018-12-04T07:22:54.599Z,22.02
2018-12-04T07:23:30.082Z,21.93
2018-12-04T07:24:06.029Z,22.00
2018-12-04T07:24:41.748Z,21.93
2018-12-04T07:25:17.879Z,22.05
2018-12-04T07:25:53.829Z,22.12
2018-12-04T07:26:29.769Z,22.05
2018-12-04T07:27:05.476Z,22.01
2018-12-04T07:27:41.647Z,21.98
2018-12-04T07:28:17.424Z,21.95
2018-12-04T07:28:53.156Z,22.00
2018-12-04T07:29:28.542Z,22.04
2018-12-04T07:30:04.358Z,22.10
2018-12-04T07:30:40.171Z,21.96
2018-12-04T07:31:16.162Z,21.93
2018-12-04T07:31:51.791Z,22.03
2018-12-04T07:32:28.309Z,22.07
2018-12-04T07:33:04.297Z,22.05
2018-12-04T07:33:40.136Z,22.12
2018-12-04T07:34:16.219Z,22.17
2018-12-04T07:34:51.713Z,22.10
2018-12-04T07:35:27.469Z,22.13
2018-12-04T07:36:03.323Z,22.01
2018-12-04T07:36:39.182Z,21.91
2018-12-04T07:37:15.122Z,21.91
2018-12-04T07:37:50.819Z,21.89
2018-12-04T07:38:26.610Z,22.04
2018-12-04T07:39:02.197Z,22.02
2018-12-04T07:39:37.828Z,22.03
2018-12-04T07:40:13.591Z,22.08
2018-12-04T07:40:49.385Z,22.05
2018-12-04T07:41:25.063Z,22.04
2018-12-04T07:42:01.110Z,21.96
2018-12-04T07:42:36.796Z,21.88
2018-12-04T07:43:12.766Z,21.87